sensor_id;sensor_type;location;lat;lon;timestamp;temperature;humidity
44723;DHT22;30451;48.638;10.624;2023-07-13T00:00:23;28.10;51.10
44723;DHT22;30451;48.638;10.624;2023-07-13T00:02:49;28.00;51.00
44723;DHT22;30451;48.638;10.624;2023-07-13T00:05:14;28.00;51.00
44723;DHT22;30451;48.638;10.624;2023-07-13T00:07:40;28.00;51.00
44723;DHT22;30451;48.638;10.624;2023-07-13T00:10:06;28.00;51.00
44723;DHT22;30451;48.638;10.624;2023-07-13T00:12:34;28.10;51.10
44723;DHT22;30451;48.638;10.624;2023-07-13T00:15:06;28.10;51.10
44723;DHT22;30451;48.638;10.624;2023-07-13T00:17:32;28.00;50.90
44723;DHT22;30451;48.638;10.624;2023-07-13T00:19:58;28.10;51.10
44723;DHT22;30451;48.638;10.624;2023-07-13T00:22:24;28.00;51.00
44723;DHT22;30451;48.638;10.624;2023-07-13T00:24:53;28.10;51.10
44723;DHT22;30451;48.638;10.624;2023-07-13T00:27:21;28.10;51.10
44723;DHT22;30451;48.638;10.624;2023-07-13T00:29:47;28.10;51.00
44723;DHT22;30451;48.638;10.624;2023-07-13T00:32:12;28.00;50.90
44723;DHT22;30451;48.638;10.624;2023-07-13T00:34:38;28.00;50.90
44723;DHT22;30451;48.638;10.624;2023-07-13T00:37:05;28.00;50.90
44723;DHT22;30451;48.638;10.624;2023-07-13T00:39:33;28.00;50.90
44723;DHT22;30451;48.638;10.624;2023-07-13T00:41:59;28.00;50.90
44723;DHT22;30451;48.638;10.624;2023-07-13T00:44:25;28.00;50.90
44723;DHT22;30451;48.638;10.624;2023-07-13T00:46:50;28.00;50.90
44723;DHT22;30451;48.638;10.624;2023-07-13T00:49:20;28.00;50.90
44723;DHT22;30451;48.638;10.624;2023-07-13T00:51:50;28.00;50.90
44723;DHT22;30451;48.638;10.624;2023-07-13T00:54:24;28.00;50.90
44723;DHT22;30451;48.638;10.624;2023-07-13T00:56:54;28.00;50.90
44723;DHT22;30451;48.638;10.624;2023-07-13T00:59:21;28.00;50.90
44723;DHT22;30451;48.638;10.624;2023-07-13T01:01:47;28.00;50.90
44723;DHT22;30451;48.638;10.624;2023-07-13T01:04:13;28.00;50.90
44723;DHT22;30451;48.638;10.624;2023-07-13T01:06:41;28.00;50.90
44723;DHT22;30451;48.638;10.624;2023-07-13T01:09:10;28.00;50.90
44723;DHT22;30451;48.638;10.624;2023-07-13T01:11:36;28.00;50.90
44723;DHT22;30451;48.638;10.624;2023-07-13T01:14:02;28.00;50.90
44723;DHT22;30451;48.638;10.624;2023-07-13T01:16:31;28.00;50.90
44723;DHT22;30451;48.638;10.624;2023-07-13T01:18:57;27.90;50.80
44723;DHT22;30451;48.638;10.624;2023-07-13T01:21:24;27.90;50.80
44723;DHT22;30451;48.638;10.624;2023-07-13T01:23:50;27.90;50.80
44723;DHT22;30451;48.638;10.624;2023-07-13T01:26:16;27.90;50.80
44723;DHT22;30451;48.638;10.624;2023-07-13T01:28:41;27.90;50.80
44723;DHT22;30451;48.638;10.624;2023-07-13T01:31:07;27.90;50.80
44723;DHT22;30451;48.638;10.624;2023-07-13T01:33:34;27.90;50.80
44723;DHT22;30451;48.638;10.624;2023-07-13T01:36:00;27.90;50.80
44723;DHT22;30451;48.638;10.624;2023-07-13T01:38:27;27.90;50.80
44723;DHT22;30451;48.638;10.624;2023-07-13T01:40:53;27.90;50.80
44723;DHT22;30451;48.638;10.624;2023-07-13T01:43:20;27.90;50.80
44723;DHT22;30451;48.638;10.624;2023-07-13T01:45:46;27.90;50.90
44723;DHT22;30451;48.638;10.624;2023-07-13T01:48:13;27.90;50.90
44723;DHT22;30451;48.638;10.624;2023-07-13T01:50:38;27.90;50.80
44723;DHT22;30451;48.638;10.624;2023-07-13T01:53:04;27.90;50.80
44723;DHT22;30451;48.638;10.624;2023-07-13T01:55:30;27.90;50.90
44723;DHT22;30451;48.638;10.624;2023-07-13T01:57:57;27.90;50.90
44723;DHT22;30451;48.638;10.624;2023-07-13T02:00:22;27.80;50.80
44723;DHT22;30451;48.638;10.624;2023-07-13T02:02:48;27.90;50.90
44723;DHT22;30451;48.638;10.624;2023-07-13T02:05:14;27.80;50.80
44723;DHT22;30451;48.638;10.624;2023-07-13T02:07:40;27.80;50.80
44723;DHT22;30451;48.638;10.624;2023-07-13T02:10:08;27.80;50.80
44723;DHT22;30451;48.638;10.624;2023-07-13T02:12:34;27.80;50.80
44723;DHT22;30451;48.638;10.624;2023-07-13T02:15:00;27.80;50.80
44723;DHT22;30451;48.638;10.624;2023-07-13T02:17:26;27.80;50.80
44723;DHT22;30451;48.638;10.624;2023-07-13T02:19:52;27.80;50.80
44723;DHT22;30451;48.638;10.624;2023-07-13T02:22:18;27.90;50.90
44723;DHT22;30451;48.638;10.624;2023-07-13T02:24:43;27.80;50.80
44723;DHT22;30451;48.638;10.624;2023-07-13T02:27:09;27.80;50.80
44723;DHT22;30451;48.638;10.624;2023-07-13T02:29:35;27.80;50.80
44723;DHT22;30451;48.638;10.624;2023-07-13T02:32:00;27.80;50.80
44723;DHT22;30451;48.638;10.624;2023-07-13T02:34:26;27.80;50.80
44723;DHT22;30451;48.638;10.624;2023-07-13T02:36:51;27.80;50.80
44723;DHT22;30451;48.638;10.624;2023-07-13T02:39:17;27.80;50.80
44723;DHT22;30451;48.638;10.624;2023-07-13T02:41:43;27.80;51.40
44723;DHT22;30451;48.638;10.624;2023-07-13T02:44:08;27.80;50.80
44723;DHT22;30451;48.638;10.624;2023-07-13T02:46:36;27.80;50.90
44723;DHT22;30451;48.638;10.624;2023-07-13T02:49:02;27.80;50.80
44723;DHT22;30451;48.638;10.624;2023-07-13T02:51:28;27.80;50.80
44723;DHT22;30451;48.638;10.624;2023-07-13T02:53:54;27.80;50.80
44723;DHT22;30451;48.638;10.624;2023-07-13T02:56:23;27.80;50.90
44723;DHT22;30451;48.638;10.624;2023-07-13T02:58:49;27.70;50.80
44723;DHT22;30451;48.638;10.624;2023-07-13T03:01:15;27.70;50.80
44723;DHT22;30451;48.638;10.624;2023-07-13T03:03:44;27.80;50.80
44723;DHT22;30451;48.638;10.624;2023-07-13T03:06:11;27.80;51.40
44723;DHT22;30451;48.638;10.624;2023-07-13T03:08:37;27.80;50.90
44723;DHT22;30451;48.638;10.624;2023-07-13T03:11:08;27.80;50.80
44723;DHT22;30451;48.638;10.624;2023-07-13T03:13:34;27.70;50.80
44723;DHT22;30451;48.638;10.624;2023-07-13T03:16:00;27.70;50.80
44723;DHT22;30451;48.638;10.624;2023-07-13T03:18:27;27.70;50.80
44723;DHT22;30451;48.638;10.624;2023-07-13T03:20:53;27.70;50.80
44723;DHT22;30451;48.638;10.624;2023-07-13T03:23:20;27.70;50.80
44723;DHT22;30451;48.638;10.624;2023-07-13T03:25:46;27.70;50.80
44723;DHT22;30451;48.638;10.624;2023-07-13T03:28:12;27.70;50.80
44723;DHT22;30451;48.638;10.624;2023-07-13T03:30:38;27.70;50.80
44723;DHT22;30451;48.638;10.624;2023-07-13T03:33:04;27.70;50.80
44723;DHT22;30451;48.638;10.624;2023-07-13T03:35:29;27.70;50.80
44723;DHT22;30451;48.638;10.624;2023-07-13T03:37:55;27.70;50.80
44723;DHT22;30451;48.638;10.624;2023-07-13T03:40:22;27.70;50.80
44723;DHT22;30451;48.638;10.624;2023-07-13T03:42:47;27.70;50.80
44723;DHT22;30451;48.638;10.624;2023-07-13T03:45:13;27.70;50.70
44723;DHT22;30451;48.638;10.624;2023-07-13T03:47:39;27.70;50.80
44723;DHT22;30451;48.638;10.624;2023-07-13T03:50:05;27.70;50.80
44723;DHT22;30451;48.638;10.624;2023-07-13T03:52:30;27.70;50.80
44723;DHT22;30451;48.638;10.624;2023-07-13T03:54:56;27.70;50.80
44723;DHT22;30451;48.638;10.624;2023-07-13T03:57:22;27.70;50.70
44723;DHT22;30451;48.638;10.624;2023-07-13T03:59:48;27.70;50.70
44723;DHT22;30451;48.638;10.624;2023-07-13T04:02:13;27.70;49.50
44723;DHT22;30451;48.638;10.624;2023-07-13T04:04:39;27.60;49.30
44723;DHT22;30451;48.638;10.624;2023-07-13T04:07:06;27.60;49.40
44723;DHT22;30451;48.638;10.624;2023-07-13T04:09:34;27.60;49.40
44723;DHT22;30451;48.638;10.624;2023-07-13T04:11:59;27.70;49.20
44723;DHT22;30451;48.638;10.624;2023-07-13T04:14:25;27.60;48.90
44723;DHT22;30451;48.638;10.624;2023-07-13T04:16:51;27.60;48.80
44723;DHT22;30451;48.638;10.624;2023-07-13T04:19:17;27.60;48.70
44723;DHT22;30451;48.638;10.624;2023-07-13T04:21:42;27.60;48.70
44723;DHT22;30451;48.638;10.624;2023-07-13T04:24:08;27.50;48.60
44723;DHT22;30451;48.638;10.624;2023-07-13T04:26:34;27.60;48.40
44723;DHT22;30451;48.638;10.624;2023-07-13T04:29:01;27.50;48.30
44723;DHT22;30451;48.638;10.624;2023-07-13T04:31:29;27.50;48.10
44723;DHT22;30451;48.638;10.624;2023-07-13T04:33:55;27.50;48.00
44723;DHT22;30451;48.638;10.624;2023-07-13T04:36:20;27.50;48.10
44723;DHT22;30451;48.638;10.624;2023-07-13T04:38:46;27.40;47.90
44723;DHT22;30451;48.638;10.624;2023-07-13T04:41:13;27.40;47.90
44723;DHT22;30451;48.638;10.624;2023-07-13T04:43:39;27.40;48.00
44723;DHT22;30451;48.638;10.624;2023-07-13T04:46:07;27.40;47.90
44723;DHT22;30451;48.638;10.624;2023-07-13T04:48:34;27.40;48.10
44723;DHT22;30451;48.638;10.624;2023-07-13T04:51:00;27.30;47.90
44723;DHT22;30451;48.638;10.624;2023-07-13T04:53:26;27.30;48.00
44723;DHT22;30451;48.638;10.624;2023-07-13T04:55:52;27.30;48.10
44723;DHT22;30451;48.638;10.624;2023-07-13T04:58:17;27.30;48.10
44723;DHT22;30451;48.638;10.624;2023-07-13T05:00:43;27.30;48.10
44723;DHT22;30451;48.638;10.624;2023-07-13T05:03:09;27.20;47.90
44723;DHT22;30451;48.638;10.624;2023-07-13T05:05:35;27.20;47.80
44723;DHT22;30451;48.638;10.624;2023-07-13T05:08:01;27.20;47.50
44723;DHT22;30451;48.638;10.624;2023-07-13T05:10:27;27.10;47.50
44723;DHT22;30451;48.638;10.624;2023-07-13T05:12:53;27.10;47.20
44723;DHT22;30451;48.638;10.624;2023-07-13T05:15:21;27.10;47.30
44723;DHT22;30451;48.638;10.624;2023-07-13T05:17:48;27.10;47.30
44723;DHT22;30451;48.638;10.624;2023-07-13T05:20:15;27.10;47.30
44723;DHT22;30451;48.638;10.624;2023-07-13T05:22:41;27.00;47.10
44723;DHT22;30451;48.638;10.624;2023-07-13T05:25:07;27.00;47.10
44723;DHT22;30451;48.638;10.624;2023-07-13T05:27:34;27.00;47.10
44723;DHT22;30451;48.638;10.624;2023-07-13T05:30:00;26.90;47.20
44723;DHT22;30451;48.638;10.624;2023-07-13T05:32:26;26.90;47.40
44723;DHT22;30451;48.638;10.624;2023-07-13T05:34:52;26.90;47.60
44723;DHT22;30451;48.638;10.624;2023-07-13T05:37:18;26.80;47.80
44723;DHT22;30451;48.638;10.624;2023-07-13T05:39:43;26.80;47.70
44723;DHT22;30451;48.638;10.624;2023-07-13T05:42:09;26.80;47.80
44723;DHT22;30451;48.638;10.624;2023-07-13T05:44:35;26.80;47.90
44723;DHT22;30451;48.638;10.624;2023-07-13T05:47:00;26.80;48.00
44723;DHT22;30451;48.638;10.624;2023-07-13T05:49:26;26.80;47.90
44723;DHT22;30451;48.638;10.624;2023-07-13T05:51:51;26.80;47.90
44723;DHT22;30451;48.638;10.624;2023-07-13T05:54:17;26.80;47.80
44723;DHT22;30451;48.638;10.624;2023-07-13T05:56:43;26.70;47.50
44723;DHT22;30451;48.638;10.624;2023-07-13T05:59:08;26.70;48.00
44723;DHT22;30451;48.638;10.624;2023-07-13T06:01:34;26.70;48.20
44723;DHT22;30451;48.638;10.624;2023-07-13T06:03:59;26.70;48.80
44723;DHT22;30451;48.638;10.624;2023-07-13T06:06:25;26.70;48.40
44723;DHT22;30451;48.638;10.624;2023-07-13T06:08:51;26.70;48.40
44723;DHT22;30451;48.638;10.624;2023-07-13T06:11:19;26.70;48.40
44723;DHT22;30451;48.638;10.624;2023-07-13T06:13:45;26.70;48.50
44723;DHT22;30451;48.638;10.624;2023-07-13T06:16:11;26.70;48.50
44723;DHT22;30451;48.638;10.624;2023-07-13T06:18:41;26.80;48.80
44723;DHT22;30451;48.638;10.624;2023-07-13T06:21:08;26.80;49.00
44723;DHT22;30451;48.638;10.624;2023-07-13T06:23:34;26.80;49.00
44723;DHT22;30451;48.638;10.624;2023-07-13T06:26:00;26.90;49.10
44723;DHT22;30451;48.638;10.624;2023-07-13T06:28:26;26.90;49.10
44723;DHT22;30451;48.638;10.624;2023-07-13T06:30:51;26.90;49.10
44723;DHT22;30451;48.638;10.624;2023-07-13T06:33:17;27.00;49.10
44723;DHT22;30451;48.638;10.624;2023-07-13T06:35:43;27.00;49.20
44723;DHT22;30451;48.638;10.624;2023-07-13T06:38:08;27.00;49.10
44723;DHT22;30451;48.638;10.624;2023-07-13T06:40:35;27.00;49.10
44723;DHT22;30451;48.638;10.624;2023-07-13T06:43:01;27.10;49.10
44723;DHT22;30451;48.638;10.624;2023-07-13T06:45:26;27.10;49.00
44723;DHT22;30451;48.638;10.624;2023-07-13T06:47:52;27.10;48.90
44723;DHT22;30451;48.638;10.624;2023-07-13T06:50:17;27.10;48.80
44723;DHT22;30451;48.638;10.624;2023-07-13T06:52:43;27.20;49.00
44723;DHT22;30451;48.638;10.624;2023-07-13T06:55:09;27.20;49.10
44723;DHT22;30451;48.638;10.624;2023-07-13T06:57:34;27.20;49.10
44723;DHT22;30451;48.638;10.624;2023-07-13T07:00:00;27.30;49.10
44723;DHT22;30451;48.638;10.624;2023-07-13T07:02:25;27.30;49.10
44723;DHT22;30451;48.638;10.624;2023-07-13T07:04:51;27.30;49.30
44723;DHT22;30451;48.638;10.624;2023-07-13T07:07:17;27.30;49.10
44723;DHT22;30451;48.638;10.624;2023-07-13T07:09:42;27.40;49.20
44723;DHT22;30451;48.638;10.624;2023-07-13T07:12:08;27.40;49.10
44723;DHT22;30451;48.638;10.624;2023-07-13T07:14:34;27.40;49.00
44723;DHT22;30451;48.638;10.624;2023-07-13T07:17:00;27.40;49.20
44723;DHT22;30451;48.638;10.624;2023-07-13T07:19:26;27.40;49.20
44723;DHT22;30451;48.638;10.624;2023-07-13T07:21:51;27.50;49.30
44723;DHT22;30451;48.638;10.624;2023-07-13T07:24:17;27.50;49.20
44723;DHT22;30451;48.638;10.624;2023-07-13T07:26:43;27.50;49.20
44723;DHT22;30451;48.638;10.624;2023-07-13T07:29:08;27.50;49.10
44723;DHT22;30451;48.638;10.624;2023-07-13T07:31:34;27.60;48.80
44723;DHT22;30451;48.638;10.624;2023-07-13T07:33:59;27.50;48.70
44723;DHT22;30451;48.638;10.624;2023-07-13T07:36:25;27.60;48.60
44723;DHT22;30451;48.638;10.624;2023-07-13T07:38:51;27.60;48.60
44723;DHT22;30451;48.638;10.624;2023-07-13T07:41:16;27.60;48.50
44723;DHT22;30451;48.638;10.624;2023-07-13T07:43:42;27.60;48.50
44723;DHT22;30451;48.638;10.624;2023-07-13T07:46:07;27.60;48.60
44723;DHT22;30451;48.638;10.624;2023-07-13T07:48:33;27.60;48.40
44723;DHT22;30451;48.638;10.624;2023-07-13T07:50:59;27.60;48.30
44723;DHT22;30451;48.638;10.624;2023-07-13T07:53:24;27.70;48.30
44723;DHT22;30451;48.638;10.624;2023-07-13T07:55:50;27.70;48.20
44723;DHT22;30451;48.638;10.624;2023-07-13T07:58:16;27.70;48.10
44723;DHT22;30451;48.638;10.624;2023-07-13T08:00:42;27.70;48.10
44723;DHT22;30451;48.638;10.624;2023-07-13T08:03:08;27.70;48.10
44723;DHT22;30451;48.638;10.624;2023-07-13T08:05:35;27.70;48.10
44723;DHT22;30451;48.638;10.624;2023-07-13T08:08:02;27.70;48.10
44723;DHT22;30451;48.638;10.624;2023-07-13T08:10:27;27.80;48.20
44723;DHT22;30451;48.638;10.624;2023-07-13T08:12:53;27.80;48.20
44723;DHT22;30451;48.638;10.624;2023-07-13T08:15:19;27.80;48.20
44723;DHT22;30451;48.638;10.624;2023-07-13T08:17:47;27.80;48.10
44723;DHT22;30451;48.638;10.624;2023-07-13T08:20:13;27.80;48.10
44723;DHT22;30451;48.638;10.624;2023-07-13T08:22:39;27.80;48.10
44723;DHT22;30451;48.638;10.624;2023-07-13T08:25:04;27.80;48.10
44723;DHT22;30451;48.638;10.624;2023-07-13T08:27:30;27.90;48.10
44723;DHT22;30451;48.638;10.624;2023-07-13T08:29:56;27.80;48.10
44723;DHT22;30451;48.638;10.624;2023-07-13T08:32:22;27.90;48.20
44723;DHT22;30451;48.638;10.624;2023-07-13T08:34:49;27.90;48.20
44723;DHT22;30451;48.638;10.624;2023-07-13T08:37:15;27.90;48.20
44723;DHT22;30451;48.638;10.624;2023-07-13T08:39:42;27.90;48.10
44723;DHT22;30451;48.638;10.624;2023-07-13T08:42:31;27.90;48.10
44723;DHT22;30451;48.638;10.624;2023-07-13T08:45:07;27.90;48.10
44723;DHT22;30451;48.638;10.624;2023-07-13T08:47:37;27.90;48.10
44723;DHT22;30451;48.638;10.624;2023-07-13T08:50:04;28.00;48.20
44723;DHT22;30451;48.638;10.624;2023-07-13T08:52:36;28.00;48.20
44723;DHT22;30451;48.638;10.624;2023-07-13T08:57:40;28.00;48.10
44723;DHT22;30451;48.638;10.624;2023-07-13T09:00:10;28.00;48.10
44723;DHT22;30451;48.638;10.624;2023-07-13T09:02:56;28.00;48.10
44723;DHT22;30451;48.638;10.624;2023-07-13T09:10:47;28.00;48.10
44723;DHT22;30451;48.638;10.624;2023-07-13T09:13:43;28.10;48.50
44723;DHT22;30451;48.638;10.624;2023-07-13T09:16:13;28.10;48.60
44723;DHT22;30451;48.638;10.624;2023-07-13T09:18:44;28.10;48.50
44723;DHT22;30451;48.638;10.624;2023-07-13T09:21:28;28.10;48.60
44723;DHT22;30451;48.638;10.624;2023-07-13T09:26:44;28.20;48.40
44723;DHT22;30451;48.638;10.624;2023-07-13T09:29:28;28.20;48.40
44723;DHT22;30451;48.638;10.624;2023-07-13T09:31:57;28.20;48.70
44723;DHT22;30451;48.638;10.624;2023-07-13T09:34:25;28.20;48.60
44723;DHT22;30451;48.638;10.624;2023-07-13T09:36:51;28.20;48.60
44723;DHT22;30451;48.638;10.624;2023-07-13T09:42:22;28.30;48.40
44723;DHT22;30451;48.638;10.624;2023-07-13T09:44:55;28.30;48.40
44723;DHT22;30451;48.638;10.624;2023-07-13T09:47:22;28.30;48.40
44723;DHT22;30451;48.638;10.624;2023-07-13T09:50:03;28.30;48.40
44723;DHT22;30451;48.638;10.624;2023-07-13T09:52:50;28.30;48.30
44723;DHT22;30451;48.638;10.624;2023-07-13T09:55:33;28.40;48.30
44723;DHT22;30451;48.638;10.624;2023-07-13T09:58:20;28.40;48.30
44723;DHT22;30451;48.638;10.624;2023-07-13T10:01:02;28.40;48.20
44723;DHT22;30451;48.638;10.624;2023-07-13T10:03:34;28.40;48.20
44723;DHT22;30451;48.638;10.624;2023-07-13T10:06:20;28.50;48.30
44723;DHT22;30451;48.638;10.624;2023-07-13T10:08:50;28.50;48.20
44723;DHT22;30451;48.638;10.624;2023-07-13T10:11:21;28.50;48.20
44723;DHT22;30451;48.638;10.624;2023-07-13T10:13:52;28.50;48.00
44723;DHT22;30451;48.638;10.624;2023-07-13T10:16:22;28.50;47.80
44723;DHT22;30451;48.638;10.624;2023-07-13T10:19:01;28.60;47.70
44723;DHT22;30451;48.638;10.624;2023-07-13T10:21:36;28.50;47.40
44723;DHT22;30451;48.638;10.624;2023-07-13T10:24:17;28.50;47.30
44723;DHT22;30451;48.638;10.624;2023-07-13T10:26:52;28.60;47.30
44723;DHT22;30451;48.638;10.624;2023-07-13T10:29:22;28.60;47.30
44723;DHT22;30451;48.638;10.624;2023-07-13T10:31:49;28.60;47.30
44723;DHT22;30451;48.638;10.624;2023-07-13T10:34:15;28.60;47.50
44723;DHT22;30451;48.638;10.624;2023-07-13T10:36:48;28.60;47.70
44723;DHT22;30451;48.638;10.624;2023-07-13T10:39:25;28.60;47.80
44723;DHT22;30451;48.638;10.624;2023-07-13T10:41:59;28.60;47.80
44723;DHT22;30451;48.638;10.624;2023-07-13T10:44:28;28.60;48.10
44723;DHT22;30451;48.638;10.624;2023-07-13T10:47:04;28.70;48.20
44723;DHT22;30451;48.638;10.624;2023-07-13T10:49:33;28.70;48.20
44723;DHT22;30451;48.638;10.624;2023-07-13T10:52:00;28.70;48.20
44723;DHT22;30451;48.638;10.624;2023-07-13T10:54:27;28.70;48.40
44723;DHT22;30451;48.638;10.624;2023-07-13T10:57:17;28.70;48.60
44723;DHT22;30451;48.638;10.624;2023-07-13T10:59:49;28.70;48.40
44723;DHT22;30451;48.638;10.624;2023-07-13T11:02:34;28.80;48.70
44723;DHT22;30451;48.638;10.624;2023-07-13T11:05:20;28.80;48.80
44723;DHT22;30451;48.638;10.624;2023-07-13T11:08:16;28.80;48.60
44723;DHT22;30451;48.638;10.624;2023-07-13T11:10:56;28.80;48.40
44723;DHT22;30451;48.638;10.624;2023-07-13T11:18:48;28.80;49.10
44723;DHT22;30451;48.638;10.624;2023-07-13T11:21:16;28.90;48.80
44723;DHT22;30451;48.638;10.624;2023-07-13T11:23:44;28.90;49.30
44723;DHT22;30451;48.638;10.624;2023-07-13T11:26:37;28.90;48.90
44723;DHT22;30451;48.638;10.624;2023-07-13T11:29:25;28.90;49.60
44723;DHT22;30451;48.638;10.624;2023-07-13T11:31:53;28.90;49.50
44723;DHT22;30451;48.638;10.624;2023-07-13T11:34:38;28.90;49.30
44723;DHT22;30451;48.638;10.624;2023-07-13T11:37:11;29.00;49.50
44723;DHT22;30451;48.638;10.624;2023-07-13T11:39:41;29.00;49.50
44723;DHT22;30451;48.638;10.624;2023-07-13T11:42:15;29.00;49.40
44723;DHT22;30451;48.638;10.624;2023-07-13T11:44:43;29.00;49.70
44723;DHT22;30451;48.638;10.624;2023-07-13T11:47:20;29.00;49.50
44723;DHT22;30451;48.638;10.624;2023-07-13T11:49:54;29.00;49.60
44723;DHT22;30451;48.638;10.624;2023-07-13T11:52:26;29.00;49.80
44723;DHT22;30451;48.638;10.624;2023-07-13T11:54:57;29.10;49.60
44723;DHT22;30451;48.638;10.624;2023-07-13T11:57:33;29.00;50.10
44723;DHT22;30451;48.638;10.624;2023-07-13T12:00:09;29.10;50.00
44723;DHT22;30451;48.638;10.624;2023-07-13T12:02:38;29.10;50.00
44723;DHT22;30451;48.638;10.624;2023-07-13T12:05:09;29.10;49.60
44723;DHT22;30451;48.638;10.624;2023-07-13T12:07:36;29.10;50.00
44723;DHT22;30451;48.638;10.624;2023-07-13T12:10:28;29.20;50.40
44723;DHT22;30451;48.638;10.624;2023-07-13T12:13:03;29.20;50.30
44723;DHT22;30451;48.638;10.624;2023-07-13T12:15:43;29.20;50.10
44723;DHT22;30451;48.638;10.624;2023-07-13T12:18:13;29.20;49.20
44723;DHT22;30451;48.638;10.624;2023-07-13T12:20:39;29.20;48.80
44723;DHT22;30451;48.638;10.624;2023-07-13T12:23:10;29.10;48.50
44723;DHT22;30451;48.638;10.624;2023-07-13T12:25:42;29.10;48.20
44723;DHT22;30451;48.638;10.624;2023-07-13T12:31:22;29.20;48.80
44723;DHT22;30451;48.638;10.624;2023-07-13T12:33:59;29.20;48.80
44723;DHT22;30451;48.638;10.624;2023-07-13T12:36:25;29.30;48.80
44723;DHT22;30451;48.638;10.624;2023-07-13T12:38:52;29.20;48.70
44723;DHT22;30451;48.638;10.624;2023-07-13T12:41:18;29.20;48.60
44723;DHT22;30451;48.638;10.624;2023-07-13T12:43:45;29.30;48.60
44723;DHT22;30451;48.638;10.624;2023-07-13T12:46:20;29.30;48.60
44723;DHT22;30451;48.638;10.624;2023-07-13T12:48:54;29.30;48.60
44723;DHT22;30451;48.638;10.624;2023-07-13T12:51:24;29.30;48.60
44723;DHT22;30451;48.638;10.624;2023-07-13T12:53:58;29.30;48.60
44723;DHT22;30451;48.638;10.624;2023-07-13T12:56:33;29.30;48.60
44723;DHT22;30451;48.638;10.624;2023-07-13T12:59:02;29.30;48.60
44723;DHT22;30451;48.638;10.624;2023-07-13T13:01:31;29.30;48.50
44723;DHT22;30451;48.638;10.624;2023-07-13T13:04:00;29.40;48.70
44723;DHT22;30451;48.638;10.624;2023-07-13T13:06:27;29.40;48.60
44723;DHT22;30451;48.638;10.624;2023-07-13T13:08:57;29.40;48.50
44723;DHT22;30451;48.638;10.624;2023-07-13T13:11:28;29.40;48.40
44723;DHT22;30451;48.638;10.624;2023-07-13T13:13:54;29.40;48.40
44723;DHT22;30451;48.638;10.624;2023-07-13T13:16:48;29.40;48.40
44723;DHT22;30451;48.638;10.624;2023-07-13T13:19:25;29.40;48.40
44723;DHT22;30451;48.638;10.624;2023-07-13T13:21:54;29.40;48.10
44723;DHT22;30451;48.638;10.624;2023-07-13T13:24:23;29.50;48.10
44723;DHT22;30451;48.638;10.624;2023-07-13T13:26:50;29.40;48.00
44723;DHT22;30451;48.638;10.624;2023-07-13T13:29:21;29.40;48.00
44723;DHT22;30451;48.638;10.624;2023-07-13T13:31:47;29.40;48.00
44723;DHT22;30451;48.638;10.624;2023-07-13T13:34:17;29.40;48.10
44723;DHT22;30451;48.638;10.624;2023-07-13T13:36:45;29.50;48.10
44723;DHT22;30451;48.638;10.624;2023-07-13T13:39:23;29.50;48.00
44723;DHT22;30451;48.638;10.624;2023-07-13T13:41:53;29.50;48.40
44723;DHT22;30451;48.638;10.624;2023-07-13T13:44:20;29.50;47.90
44723;DHT22;30451;48.638;10.624;2023-07-13T13:46:52;29.50;47.80
44723;DHT22;30451;48.638;10.624;2023-07-13T13:49:23;29.50;47.80
44723;DHT22;30451;48.638;10.624;2023-07-13T13:51:49;29.50;47.70
44723;DHT22;30451;48.638;10.624;2023-07-13T13:54:16;29.50;47.80
44723;DHT22;30451;48.638;10.624;2023-07-13T13:56:43;29.60;48.00
44723;DHT22;30451;48.638;10.624;2023-07-13T13:59:10;29.50;48.00
44723;DHT22;30451;48.638;10.624;2023-07-13T14:01:36;29.60;48.00
44723;DHT22;30451;48.638;10.624;2023-07-13T14:04:04;29.60;47.90
44723;DHT22;30451;48.638;10.624;2023-07-13T14:06:32;29.60;48.00
44723;DHT22;30451;48.638;10.624;2023-07-13T14:08:58;29.60;47.90
44723;DHT22;30451;48.638;10.624;2023-07-13T14:11:24;29.60;48.00
44723;DHT22;30451;48.638;10.624;2023-07-13T14:13:53;29.60;47.90
44723;DHT22;30451;48.638;10.624;2023-07-13T14:16:22;29.60;48.00
44723;DHT22;30451;48.638;10.624;2023-07-13T14:18:49;29.60;48.10
44723;DHT22;30451;48.638;10.624;2023-07-13T14:21:15;29.60;48.20
44723;DHT22;30451;48.638;10.624;2023-07-13T14:23:45;29.60;48.20
44723;DHT22;30451;48.638;10.624;2023-07-13T14:26:22;29.70;47.90
44723;DHT22;30451;48.638;10.624;2023-07-13T14:28:51;29.60;47.60
44723;DHT22;30451;48.638;10.624;2023-07-13T14:31:18;29.60;47.50
44723;DHT22;30451;48.638;10.624;2023-07-13T14:33:45;29.60;47.40
44723;DHT22;30451;48.638;10.624;2023-07-13T14:38:41;29.60;47.30
44723;DHT22;30451;48.638;10.624;2023-07-13T14:41:08;29.60;47.20
44723;DHT22;30451;48.638;10.624;2023-07-13T14:43:34;29.50;47.10
44723;DHT22;30451;48.638;10.624;2023-07-13T14:45:59;29.50;47.10
44723;DHT22;30451;48.638;10.624;2023-07-13T14:48:25;29.50;47.10
44723;DHT22;30451;48.638;10.624;2023-07-13T14:50:58;29.50;47.20
44723;DHT22;30451;48.638;10.624;2023-07-13T14:53:26;29.50;47.20
44723;DHT22;30451;48.638;10.624;2023-07-13T14:55:55;29.50;47.20
44723;DHT22;30451;48.638;10.624;2023-07-13T14:58:20;29.50;47.20
44723;DHT22;30451;48.638;10.624;2023-07-13T15:00:46;29.40;47.20
44723;DHT22;30451;48.638;10.624;2023-07-13T15:03:24;29.40;47.20
44723;DHT22;30451;48.638;10.624;2023-07-13T15:05:51;29.40;47.30
44723;DHT22;30451;48.638;10.624;2023-07-13T15:08:18;29.40;47.30
44723;DHT22;30451;48.638;10.624;2023-07-13T15:10:44;29.40;47.30
44723;DHT22;30451;48.638;10.624;2023-07-13T15:13:16;29.40;47.40
44723;DHT22;30451;48.638;10.624;2023-07-13T15:15:45;29.40;47.40
44723;DHT22;30451;48.638;10.624;2023-07-13T15:18:12;29.40;47.40
44723;DHT22;30451;48.638;10.624;2023-07-13T15:20:39;29.30;47.30
44723;DHT22;30451;48.638;10.624;2023-07-13T15:23:05;29.30;47.40
44723;DHT22;30451;48.638;10.624;2023-07-13T15:25:33;29.30;47.40
44723;DHT22;30451;48.638;10.624;2023-07-13T15:27:59;29.30;47.40
44723;DHT22;30451;48.638;10.624;2023-07-13T15:30:28;29.20;47.40
44723;DHT22;30451;48.638;10.624;2023-07-13T15:32:56;29.20;47.90
44723;DHT22;30451;48.638;10.624;2023-07-13T15:35:25;29.20;47.40
44723;DHT22;30451;48.638;10.624;2023-07-13T15:37:53;29.20;47.50
44723;DHT22;30451;48.638;10.624;2023-07-13T15:40:23;29.20;47.50
44723;DHT22;30451;48.638;10.624;2023-07-13T15:42:53;29.20;47.50
44723;DHT22;30451;48.638;10.624;2023-07-13T15:45:21;29.20;47.60
44723;DHT22;30451;48.638;10.624;2023-07-13T15:47:49;29.10;47.50